createdAt,value
2023-05-04T00:01:50.920Z,20.00
2023-05-04T00:04:53.920Z,20.00
2023-05-04T00:07:56.293Z,20.00
2023-05-04T00:10:58.511Z,20.00
2023-05-04T00:14:02.258Z,20.00
2023-05-04T00:17:08.121Z,20.00
2023-05-04T00:20:10.691Z,20.00
2023-05-04T00:23:13.113Z,19.90
2023-05-04T00:26:15.325Z,19.90
2023-05-04T00:29:18.330Z,19.90
2023-05-04T00:32:22.224Z,19.90
2023-05-04T00:35:27.101Z,19.90
2023-05-04T00:38:31.663Z,19.80
2023-05-04T00:41:35.376Z,19.80
2023-05-04T00:44:41.964Z,19.80
2023-05-04T00:47:45.005Z,19.80
2023-05-04T00:50:48.090Z,19.80
2023-05-04T00:53:50.959Z,19.80
2023-05-04T00:56:53.826Z,19.80
2023-05-04T00:59:57.282Z,19.80
2023-05-04T01:02:59.473Z,19.80
2023-05-04T01:06:29.519Z,19.80
2023-05-04T01:09:31.575Z,19.70
2023-05-04T01:12:44.922Z,19.70
2023-05-04T01:15:48.611Z,19.60
2023-05-04T01:18:50.694Z,19.60
2023-05-04T01:21:52.999Z,19.60
2023-05-04T01:24:55.664Z,19.60
2023-05-04T01:28:06.033Z,19.50
2023-05-04T01:31:13.988Z,19.50
2023-05-04T01:34:18.079Z,19.50
2023-05-04T01:37:20.297Z,19.50
2023-05-04T01:40:22.704Z,19.40
2023-05-04T01:43:25.400Z,19.40
2023-05-04T01:46:30.553Z,19.40
2023-05-04T01:49:32.993Z,19.40
2023-05-04T01:52:35.416Z,19.40
2023-05-04T01:55:37.886Z,19.30
2023-05-04T01:58:40.354Z,19.40
2023-05-04T02:01:42.805Z,19.30
2023-05-04T02:04:45.186Z,19.30
2023-05-04T02:07:47.406Z,19.30
2023-05-04T02:10:49.874Z,19.30
2023-05-04T02:13:52.338Z,19.20
2023-05-04T02:16:54.924Z,19.20
2023-05-04T02:19:57.226Z,19.20
2023-05-04T02:22:59.499Z,19.20
2023-05-04T02:26:02.101Z,19.20
2023-05-04T02:29:06.040Z,19.20
2023-05-04T02:32:08.413Z,19.10
2023-05-04T02:35:10.785Z,19.10
2023-05-04T02:38:12.977Z,19.00
2023-05-04T02:41:15.300Z,19.10
2023-05-04T02:44:18.353Z,19.00
2023-05-04T02:47:20.681Z,19.00
2023-05-04T02:50:23.994Z,19.00
2023-05-04T02:53:26.151Z,18.90
2023-05-04T02:56:29.736Z,19.00
2023-05-04T02:59:32.700Z,18.90
2023-05-04T03:02:35.095Z,18.90
2023-05-04T03:05:37.212Z,18.90
2023-05-04T03:08:39.518Z,18.90
2023-05-04T03:11:41.901Z,18.90
2023-05-04T03:14:44.082Z,18.90
2023-05-04T03:17:46.418Z,18.90
2023-05-04T03:20:48.822Z,19.00
2023-05-04T03:23:51.249Z,19.00
2023-05-04T03:26:53.486Z,19.00
2023-05-04T03:29:56.090Z,19.00
2023-05-04T03:32:58.330Z,19.00
2023-05-04T03:36:00.539Z,19.00
2023-05-04T03:39:02.685Z,19.00
2023-05-04T03:42:04.821Z,18.90
2023-05-04T03:45:07.610Z,18.90
2023-05-04T03:48:09.902Z,18.90
2023-05-04T03:51:12.186Z,18.90
2023-05-04T03:54:14.350Z,18.90
2023-05-04T03:57:16.847Z,18.90
2023-05-04T04:00:19.340Z,18.80
2023-05-04T04:03:21.820Z,18.80
2023-05-04T04:06:24.364Z,18.90
2023-05-04T04:09:26.705Z,18.90
2023-05-04T04:12:29.174Z,18.90
2023-05-04T04:15:38.293Z,18.90
2023-05-04T04:18:43.129Z,18.90
2023-05-04T04:21:45.336Z,18.90
2023-05-04T04:24:47.462Z,18.90
2023-05-04T04:27:49.768Z,18.90
2023-05-04T04:30:51.980Z,18.90
2023-05-04T04:33:54.363Z,18.80
2023-05-04T04:36:56.498Z,18.80
2023-05-04T04:39:58.689Z,18.80
2023-05-04T04:43:00.860Z,18.80
2023-05-04T04:46:04.248Z,18.80
2023-05-04T04:49:07.443Z,18.80
2023-05-04T04:52:11.879Z,18.80
2023-05-04T04:55:16.878Z,18.80
2023-05-04T04:58:19.146Z,18.70
2023-05-04T05:01:21.417Z,18.70
2023-05-04T05:04:24.041Z,18.60
2023-05-04T05:07:26.216Z,18.70
2023-05-04T05:10:28.756Z,18.60
2023-05-04T05:13:31.560Z,18.70
2023-05-04T05:16:34.103Z,18.70
2023-05-04T05:19:38.139Z,18.60
2023-05-04T05:22:41.693Z,18.70
2023-05-04T05:25:44.716Z,18.70
2023-05-04T05:28:47.550Z,18.70
2023-05-04T05:31:49.838Z,18.70
2023-05-04T05:34:52.279Z,18.60
2023-05-04T05:37:55.581Z,18.60
2023-05-04T05:40:57.768Z,18.60
2023-05-04T05:44:00.072Z,18.50
2023-05-04T05:47:02.762Z,18.40
2023-05-04T05:50:05.439Z,18.40
2023-05-04T05:53:08.126Z,18.50
2023-05-04T05:56:10.250Z,18.50
2023-05-04T05:59:16.487Z,18.60
2023-05-04T06:02:18.709Z,18.50
2023-05-04T06:05:21.158Z,18.50
2023-05-04T06:08:23.599Z,18.50
2023-05-04T06:11:27.094Z,18.50
2023-05-04T06:14:29.363Z,18.50
2023-05-04T06:17:31.546Z,18.60
2023-05-04T06:20:33.849Z,18.80
2023-05-04T06:23:36.899Z,19.00
2023-05-04T06:26:39.321Z,19.00
2023-05-04T06:29:41.625Z,19.10
2023-05-04T06:32:44.097Z,19.20
2023-05-04T06:35:46.324Z,19.50
2023-05-04T06:38:48.617Z,19.90
2023-05-04T06:41:53.765Z,20.60
2023-05-04T06:44:58.719Z,21.40
2023-05-04T06:48:01.323Z,22.20
2023-05-04T06:51:03.526Z,22.50
2023-05-04T06:54:06.447Z,23.10
2023-05-04T06:57:08.668Z,23.90
2023-05-04T07:00:11.520Z,24.10
2023-05-04T07:03:13.853Z,24.00
2023-05-04T07:06:16.168Z,23.70
2023-05-04T07:09:21.719Z,23.40
2023-05-04T07:12:23.897Z,23.20
2023-05-04T07:15:26.012Z,23.40
2023-05-04T07:18:28.269Z,24.00
2023-05-04T07:21:31.067Z,25.00
2023-05-04T07:24:33.512Z,25.50
2023-05-04T07:27:36.093Z,26.00
2023-05-04T07:30:38.530Z,26.80
2023-05-04T07:33:41.251Z,27.60
2023-05-04T07:36:43.914Z,28.10
2023-05-04T07:39:46.360Z,28.90
2023-05-04T07:42:48.806Z,29.20
2023-05-04T07:45:53.624Z,29.90
2023-05-04T07:48:57.153Z,30.20
2023-05-04T07:51:59.839Z,30.10
2023-05-04T07:55:02.117Z,30.60
2023-05-04T07:58:04.569Z,30.80
2023-05-04T08:01:07.109Z,30.90
2023-05-04T08:04:09.603Z,31.30
2023-05-04T08:07:11.952Z,31.90
2023-05-04T08:10:14.361Z,32.20
2023-05-04T08:13:16.697Z,31.70
2023-05-04T08:16:19.062Z,32.20
2023-05-04T08:19:21.270Z,32.60
2023-05-04T08:22:24.014Z,32.90
2023-05-04T08:25:27.365Z,32.90
2023-05-04T08:28:37.850Z,32.80
2023-05-04T08:31:43.176Z,32.00
2023-05-04T08:34:45.488Z,31.40
2023-05-04T08:37:48.920Z,30.80
2023-05-04T08:40:51.285Z,30.10
2023-05-04T08:43:53.798Z,29.30
2023-05-04T08:46:57.202Z,29.70
2023-05-04T08:49:59.483Z,30.00
2023-05-04T08:53:05.854Z,30.90
2023-05-04T08:56:09.769Z,31.50
2023-05-04T08:59:19.725Z,32.10
2023-05-04T09:02:23.573Z,32.80
2023-05-04T09:05:29.046Z,32.80
2023-05-04T09:08:31.552Z,32.40
2023-05-04T09:11:33.888Z,32.60
2023-05-04T09:14:36.713Z,33.20
2023-05-04T09:17:50.977Z,33.80
2023-05-04T09:21:02.735Z,34.50
2023-05-04T09:24:05.340Z,33.90
2023-05-04T09:27:12.270Z,33.60
2023-05-04T09:30:14.607Z,33.60
2023-05-04T09:33:17.204Z,33.90
2023-05-04T09:36:22.057Z,33.90
2023-05-04T09:39:24.448Z,34.20
2023-05-04T09:42:27.175Z,33.50
2023-05-04T09:45:46.610Z,33.40
2023-05-04T09:48:57.697Z,33.50
2023-05-04T09:52:03.103Z,34.40
2023-05-04T09:55:10.369Z,35.20
2023-05-04T09:58:16.861Z,36.00
2023-05-04T10:01:19.628Z,36.20
2023-05-04T10:04:22.159Z,35.80
2023-05-04T10:07:25.182Z,36.20
2023-05-04T10:10:27.623Z,36.90
2023-05-04T10:13:30.803Z,36.90
2023-05-04T10:16:50.014Z,36.60
2023-05-04T10:20:30.563Z,37.10
2023-05-04T10:23:51.320Z,37.10
2023-05-04T10:27:37.410Z,37.30
2023-05-04T10:30:40.314Z,36.80
2023-05-04T10:33:43.784Z,36.20
2023-05-04T10:36:46.741Z,36.10
2023-05-04T10:39:56.241Z,36.60
2023-05-04T10:42:58.695Z,36.30
2023-05-04T10:46:02.624Z,36.70
2023-05-04T10:49:17.036Z,36.30
2023-05-04T10:52:19.273Z,36.30
2023-05-04T10:55:22.257Z,36.00
2023-05-04T10:58:29.533Z,35.90
2023-05-04T11:01:43.984Z,35.90
2023-05-04T11:04:46.423Z,36.00
2023-05-04T11:07:53.381Z,35.70
2023-05-04T11:11:07.170Z,35.70
2023-05-04T11:14:11.280Z,35.70
2023-05-04T11:20:21.855Z,35.40
2023-05-04T11:23:24.752Z,35.20
2023-05-04T11:26:28.605Z,34.90
2023-05-04T11:29:30.825Z,34.40
2023-05-04T11:32:38.948Z,34.10
2023-05-04T11:35:43.097Z,33.50
2023-05-04T11:38:45.492Z,32.80
2023-05-04T11:41:47.761Z,32.50
2023-05-04T11:44:51.146Z,32.00
2023-05-04T11:47:53.981Z,31.20
2023-05-04T11:50:56.780Z,30.90
2023-05-04T11:54:01.339Z,30.70
2023-05-04T11:57:04.367Z,30.30
2023-05-04T12:00:08.550Z,30.00
2023-05-04T12:03:13.549Z,29.80
2023-05-04T12:06:16.576Z,29.50
2023-05-04T12:09:19.088Z,29.20
2023-05-04T12:12:21.745Z,29.00
2023-05-04T12:15:30.326Z,28.80
2023-05-04T12:18:32.479Z,28.30
2023-05-04T12:21:36.286Z,28.20
2023-05-04T12:24:40.199Z,28.20
2023-05-04T12:27:43.434Z,28.10
2023-05-04T12:30:45.620Z,28.00
2023-05-04T12:33:47.899Z,27.90
2023-05-04T12:36:51.394Z,27.80
2023-05-04T12:39:53.664Z,27.70
2023-05-04T12:42:56.250Z,27.50
2023-05-04T12:46:00.666Z,27.50
2023-05-04T12:49:03.221Z,27.60
2023-05-04T12:52:05.984Z,27.40
2023-05-04T12:55:09.335Z,27.20
2023-05-04T12:58:11.602Z,27.30
2023-05-04T13:01:14.428Z,27.20
2023-05-04T13:04:17.000Z,27.10
2023-05-04T13:07:20.080Z,27.20
2023-05-04T13:10:23.268Z,27.20
2023-05-04T13:13:28.894Z,27.20
2023-05-04T13:16:31.195Z,27.30
2023-05-04T13:19:33.632Z,27.20
2023-05-04T13:22:36.967Z,27.20
2023-05-04T13:25:39.127Z,27.20
2023-05-04T13:28:41.389Z,26.80
2023-05-04T13:31:44.901Z,26.80
2023-05-04T13:34:48.386Z,26.90
2023-05-04T13:37:51.025Z,26.90
2023-05-04T13:40:53.393Z,26.70
2023-05-04T13:43:56.131Z,26.70
2023-05-04T13:47:04.611Z,26.70
2023-05-04T13:50:08.128Z,26.80
2023-05-04T13:53:11.377Z,26.70
2023-05-04T13:56:13.433Z,26.70
2023-05-04T13:59:15.763Z,26.80
2023-05-04T14:02:18.114Z,26.80
2023-05-04T14:05:20.822Z,26.80
2023-05-04T14:08:23.561Z,26.80
2023-05-04T14:11:25.809Z,26.80
2023-05-04T14:14:27.967Z,26.60
2023-05-04T14:17:30.091Z,26.60
2023-05-04T14:20:32.577Z,26.60
2023-05-04T14:23:39.815Z,26.60
2023-05-04T14:26:42.168Z,26.60
2023-05-04T14:29:47.166Z,26.60
2023-05-04T14:32:58.406Z,26.60
2023-05-04T14:36:01.068Z,26.60
2023-05-04T14:39:03.768Z,26.50
2023-05-04T14:42:06.182Z,26.70
2023-05-04T14:45:10.485Z,26.70
2023-05-04T14:48:12.900Z,26.70
2023-05-04T14:51:26.545Z,26.60
2023-05-04T14:54:31.258Z,26.50
2023-05-04T14:57:33.955Z,26.60
2023-05-04T15:00:38.264Z,26.40
2023-05-04T15:03:42.238Z,26.50
2023-05-04T15:06:44.642Z,26.60
2023-05-04T15:09:47.227Z,26.60
2023-05-04T15:12:49.610Z,26.60
2023-05-04T15:15:55.046Z,26.40
2023-05-04T15:18:57.251Z,26.30
2023-05-04T15:21:59.494Z,26.30
2023-05-04T15:25:02.070Z,26.40
2023-05-04T15:28:10.031Z,26.20
2023-05-04T15:31:14.220Z,26.30
2023-05-04T15:34:18.585Z,26.30
2023-05-04T15:37:20.957Z,26.30
2023-05-04T15:40:23.663Z,26.20
2023-05-04T15:43:25.884Z,26.10
2023-05-04T15:46:29.185Z,25.80
2023-05-04T15:49:34.628Z,25.80
2023-05-04T15:52:37.136Z,25.90
2023-05-04T15:55:39.883Z,26.00
2023-05-04T15:58:44.932Z,25.80
2023-05-04T16:01:47.325Z,25.80
2023-05-04T16:04:49.660Z,25.80
2023-05-04T16:07:54.667Z,25.80
2023-05-04T16:10:58.226Z,25.60
2023-05-04T16:14:00.634Z,25.60
2023-05-04T16:17:03.293Z,25.50
2023-05-04T16:20:06.715Z,25.40
2023-05-04T16:23:09.078Z,25.40
2023-05-04T16:26:12.079Z,25.50
2023-05-04T16:29:15.589Z,25.50
2023-05-04T16:32:17.909Z,25.30
2023-05-04T16:35:21.855Z,25.30
2023-05-04T16:38:26.768Z,25.30
2023-05-04T16:41:31.045Z,25.30
2023-05-04T16:44:33.458Z,25.40
2023-05-04T16:47:35.921Z,25.50
2023-05-04T16:50:39.048Z,25.50
2023-05-04T16:53:41.499Z,25.50
2023-05-04T16:56:43.952Z,25.50
2023-05-04T16:59:46.271Z,25.60
2023-05-04T17:02:49.345Z,25.50
2023-05-04T17:05:52.430Z,25.40
2023-05-04T17:08:54.599Z,25.30
2023-05-04T17:11:57.020Z,25.30
2023-05-04T17:14:59.400Z,25.20
2023-05-04T17:18:02.509Z,24.80
2023-05-04T17:21:04.938Z,24.90
2023-05-04T17:24:07.228Z,25.00
2023-05-04T17:27:09.483Z,24.80
2023-05-04T17:30:12.533Z,24.70
2023-05-04T17:33:15.268Z,24.60
2023-05-04T17:36:17.747Z,24.50
2023-05-04T17:39:22.893Z,24.60
2023-05-04T17:42:25.114Z,24.60
2023-05-04T17:45:27.452Z,24.70
2023-05-04T17:48:34.104Z,24.70
2023-05-04T17:51:36.908Z,24.60
2023-05-04T17:54:39.382Z,24.30
2023-05-04T17:57:41.717Z,24.30
2023-05-04T18:00:45.611Z,24.30
2023-05-04T18:03:48.754Z,24.10
2023-05-04T18:06:51.360Z,23.90
2023-05-04T18:09:54.102Z,23.90
2023-05-04T18:13:00.399Z,24.00
2023-05-04T18:16:03.040Z,23.80
2023-05-04T18:19:06.777Z,23.80
2023-05-04T18:22:09.430Z,23.90
2023-05-04T18:25:15.607Z,23.90
2023-05-04T18:28:20.750Z,23.70
2023-05-04T18:31:23.206Z,23.50
2023-05-04T18:34:25.467Z,23.40
2023-05-04T18:37:31.617Z,23.40
2023-05-04T18:40:33.763Z,23.40
2023-05-04T18:43:36.295Z,23.30
2023-05-04T18:46:40.994Z,23.10
2023-05-04T18:49:44.765Z,23.00
2023-05-04T18:52:49.956Z,23.00
2023-05-04T18:56:10.422Z,22.90
2023-05-04T18:59:13.713Z,22.90
2023-05-04T19:02:15.933Z,22.80
2023-05-04T19:05:18.615Z,22.70
2023-05-04T19:08:21.662Z,22.60
2023-05-04T19:11:23.893Z,22.40
2023-05-04T19:14:30.269Z,22.30
2023-05-04T19:17:34.111Z,22.10
2023-05-04T19:20:39.977Z,21.90
2023-05-04T19:23:45.130Z,21.90
2023-05-04T19:26:49.080Z,21.80
2023-05-04T19:29:53.187Z,21.80
2023-05-04T19:32:55.476Z,21.80
2023-05-04T19:35:57.717Z,21.80
2023-05-04T19:39:00.412Z,21.70
2023-05-04T19:42:04.780Z,21.70
2023-05-04T19:45:08.347Z,21.60
2023-05-04T19:48:14.967Z,21.60
2023-05-04T19:51:17.158Z,21.60
2023-05-04T19:54:22.410Z,21.50
2023-05-04T19:57:24.624Z,21.50
2023-05-04T20:00:27.160Z,21.40
2023-05-04T20:03:32.294Z,21.40
2023-05-04T20:06:36.133Z,21.20
2023-05-04T20:09:39.219Z,21.30
2023-05-04T20:12:42.320Z,21.20
2023-05-04T20:15:45.116Z,21.20
2023-05-04T20:18:47.482Z,21.10
2023-05-04T20:21:51.525Z,21.10
2023-05-04T20:24:53.854Z,21.00
2023-05-04T20:27:56.282Z,21.00
2023-05-04T20:30:58.670Z,21.00
2023-05-04T20:34:01.043Z,20.90
2023-05-04T20:37:03.166Z,20.80
2023-05-04T20:40:06.733Z,20.80
2023-05-04T20:43:09.420Z,20.80
2023-05-04T20:46:12.286Z,20.70
2023-05-04T20:49:15.237Z,20.60
2023-05-04T20:52:17.330Z,20.60
2023-05-04T20:55:19.590Z,20.50
2023-05-04T20:58:21.820Z,20.40
2023-05-04T21:01:30.229Z,20.40
2023-05-04T21:04:32.376Z,20.40
2023-05-04T21:07:35.722Z,20.40
2023-05-04T21:10:38.154Z,20.30
2023-05-04T21:13:40.628Z,20.30
2023-05-04T21:16:43.491Z,20.30
2023-05-04T21:19:46.923Z,20.30
2023-05-04T21:22:49.320Z,20.20
2023-05-04T21:25:59.413Z,20.30
2023-05-04T21:29:01.860Z,20.20
2023-05-04T21:32:06.018Z,20.30
2023-05-04T21:35:08.557Z,20.10
2023-05-04T21:38:12.984Z,20.20
2023-05-04T21:41:16.700Z,20.10
2023-05-04T21:44:19.045Z,20.00
2023-05-04T21:47:21.519Z,20.10
2023-05-04T21:50:24.292Z,20.00
2023-05-04T21:53:27.586Z,20.00
2023-05-04T21:56:30.008Z,20.00
2023-05-04T21:59:32.354Z,20.10
2023-05-04T22:02:34.826Z,20.10
2023-05-04T22:05:37.461Z,20.10
2023-05-04T22:08:39.852Z,20.10
2023-05-04T22:11:42.237Z,20.10
2023-05-04T22:14:44.294Z,19.80
2023-05-04T22:17:46.795Z,19.90
2023-05-04T22:20:49.089Z,19.80
2023-05-04T22:23:51.553Z,19.80
2023-05-04T22:26:53.714Z,19.80
2023-05-04T22:29:55.925Z,19.80
2023-05-04T22:32:58.495Z,19.70
2023-05-04T22:36:00.883Z,19.60
2023-05-04T22:39:03.574Z,19.60
2023-05-04T22:42:05.897Z,19.60
2023-05-04T22:45:08.928Z,19.70
2023-05-04T22:48:11.114Z,19.70
2023-05-04T22:51:14.379Z,19.60
2023-05-04T22:54:18.120Z,19.60
2023-05-04T22:57:20.398Z,19.60
2023-05-04T23:00:23.200Z,19.60
2023-05-04T23:03:25.773Z,19.50
2023-05-04T23:06:28.693Z,19.50
2023-05-04T23:09:30.933Z,19.60
2023-05-04T23:12:33.545Z,19.50
2023-05-04T23:15:35.843Z,19.40
2023-05-04T23:18:38.070Z,19.40
2023-05-04T23:21:40.576Z,19.30
2023-05-04T23:24:43.657Z,19.30
2023-05-04T23:27:46.161Z,19.30
2023-05-04T23:30:48.268Z,19.40
2023-05-04T23:33:51.045Z,19.30
2023-05-04T23:36:54.667Z,19.40
2023-05-04T23:39:56.888Z,19.40
2023-05-04T23:42:59.020Z,19.30
2023-05-04T23:46:03.943Z,19.40
2023-05-04T23:49:05.944Z,19.30
2023-05-04T23:52:08.391Z,19.20
2023-05-04T23:55:14.563Z,19.20
2023-05-04T23:58:16.963Z,19.20
